Time,TemperatureF,DewpointF,PressureIn,WindDirection,WindDirectionDegrees,WindSpeedMPH,WindSpeedGustMPH,Humidity,HourlyPrecipIn,Conditions,Clouds,dailyrainin,SoftwareType,DateUTC
2013-03-05 00:00:00,53.4,50.5,30.13,WNW,293,2.0,5.0,90,0.00,,---,0.00,VWS V14.01,2013-03-05 08:00:00,
2013-03-05 00:05:00,53.3,50.7,30.13,NW,311,2.0,3.0,91,0.00,,---,0.00,VWS V14.01,2013-03-05 08:05:00,
2013-03-05 00:10:00,53.3,50.7,30.13,WNW,294,1.0,3.0,91,0.00,,---,0.00,VWS V14.01,2013-03-05 08:10:00,
2013-03-05 00:15:00,53.3,50.7,30.13,WNW,293,1.0,3.0,91,0.00,,---,0.00,VWS V14.01,2013-03-05 08:15:00,
2013-03-05 00:20:00,53.3,50.7,30.13,WNW,287,0.0,3.0,91,0.00,,---,0.00,VWS V14.01,2013-03-05 08:20:00,
2013-03-05 00:25:00,53.3,50.7,30.13,WNW,287,0.0,3.0,91,0.00,,---,0.00,VWS V14.01,2013-03-05 08:25:00,
2013-03-05 00:30:00,53.4,50.8,30.13,WNW,287,0.0,3.0,91,0.00,,---,0.00,VWS V14.01,2013-03-05 08:30:00,
2013-03-05 00:35:00,53.5,50.9,30.12,South,182,0.0,3.0,91,0.00,,---,0.00,VWS V14.01,2013-03-05 08:35:00,
2013-03-05 00:40:00,53.3,50.5,30.12,South,188,0.0,3.0,90,0.00,,---,0.00,VWS V14.01,2013-03-05 08:40:00,
2013-03-05 00:45:00,53.3,50.7,30.12,South,174,0.0,3.0,91,0.00,,---,0.00,VWS V14.01,2013-03-05 08:45:00,
2013-03-05 00:50:00,53.3,50.7,30.12,SW,222,0.0,3.0,91,0.00,,---,0.00,VWS V14.01,2013-03-05 08:50:00,
2013-03-05 00:55:00,53.3,50.7,30.12,SW,222,0.0,3.0,91,0.00,,---,0.00,VWS V14.01,2013-03-05 08:55:00,
2013-03-05 01:00:00,53.3,50.7,30.12,SE,140,1.0,3.0,91,0.00,,---,0.00,VWS V14.01,2013-03-05 09:00:00,
2013-03-05 01:05:00,53.3,50.7,30.11,SE,140,0.0,2.0,91,0.00,,---,0.00,VWS V14.01,2013-03-05 09:05:00,
2013-03-05 01:10:00,53.3,50.7,30.12,SW,219,0.0,2.0,91,0.00,,---,0.00,VWS V14.01,2013-03-05 09:10:00,
2013-03-05 01:15:00,53.3,50.7,30.11,SW,219,0.0,2.0,91,0.00,,---,0.00,VWS V14.01,2013-03-05 09:15:00,
2013-03-05 01:20:00,53.4,50.8,30.12,WSW,243,0.0,2.0,91,0.00,,---,0.00,VWS V14.01,2013-03-05 09:20:00,
2013-03-05 01:25:00,53.5,50.9,30.11,WSW,239,0.0,2.0,91,0.00,,---,0.00,VWS V14.01,2013-03-05 09:25:00,
2013-03-05 01:30:00,53.6,51.0,30.11,WSW,253,1.0,3.0,91,0.00,,---,0.00,VWS V14.01,2013-03-05 09:30:00,
2013-03-05 01:35:00,53.7,51.1,30.11,SSW,205,1.0,3.0,91,0.00,,---,0.00,VWS V14.01,2013-03-05 09:35:00,
2013-03-05 01:40:00,53.7,51.1,30.11,South,191,0.0,3.0,91,0.00,,---,0.00,VWS V14.01,2013-03-05 09:40:00,
2013-03-05 01:45:00,53.7,51.1,30.11,SSE,154,0.0,3.0,91,0.00,,---,0.00,VWS V14.01,2013-03-05 09:45:00,
2013-03-05 01:50:00,53.7,50.8,30.10,SSE,154,0.0,3.0,90,0.00,,---,0.00,VWS V14.01,2013-03-05 09:50:00,
2013-03-05 01:55:00,53.6,50.7,30.10,SSE,156,0.0,3.0,90,0.00,,---,0.00,VWS V14.01,2013-03-05 09:55:00,
2013-03-05 02:00:00,53.7,51.1,30.10,SSW,200,0.0,3.0,91,0.00,,---,0.00,VWS V14.01,2013-03-05 10:00:00,
2013-03-05 02:05:00,53.7,51.1,30.10,SSW,200,0.0,0.0,91,0.00,,---,0.00,VWS V14.01,2013-03-05 10:05:00,
2013-03-05 02:10:00,53.7,51.1,30.10,SSW,200,0.0,0.0,91,0.00,,---,0.00,VWS V14.01,2013-03-05 10:10:00,
2013-03-05 02:15:00,53.8,51.2,30.10,WNW,302,0.0,1.0,91,0.00,,---,0.00,VWS V14.01,2013-03-05 10:15:00,
2013-03-05 02:20:00,53.8,51.2,30.10,WNW,301,1.0,2.0,91,0.00,,---,0.00,VWS V14.01,2013-03-05 10:20:00,
2013-03-05 02:25:00,53.9,51.3,30.10,WNW,293,2.0,3.0,91,0.00,,---,0.00,VWS V14.01,2013-03-05 10:25:00,
2013-03-05 02:30:00,53.9,51.3,30.10,WNW,287,1.0,3.0,91,0.00,,---,0.00,VWS V14.01,2013-03-05 10:30:00,
2013-03-05 02:35:00,53.9,51.3,30.10,WNW,302,2.0,3.0,91,0.00,,---,0.00,VWS V14.01,2013-03-05 10:35:00,
2013-03-05 02:40:00,53.8,51.2,30.10,West,276,3.0,4.0,91,0.00,,---,0.00,VWS V14.01,2013-03-05 10:40:00,
2013-03-05 02:45:00,53.9,51.3,30.10,WNW,290,0.0,4.0,91,0.00,,---,0.00,VWS V14.01,2013-03-05 10:45:00,
2013-03-05 02:50:00,53.9,51.3,30.10,WNW,291,1.0,4.0,91,0.00,,---,0.00,VWS V14.01,2013-03-05 10:50:00,
2013-03-05 02:55:00,53.9,51.3,30.10,West,265,1.0,4.0,91,0.00,,---,0.00,VWS V14.01,2013-03-05 10:55:00,
2013-03-05 03:00:00,54.0,51.4,30.10,WSW,250,1.0,4.0,91,0.00,,---,0.00,VWS V14.01,2013-03-05 11:00:00,
2013-03-05 03:05:00,54.1,51.5,30.10,West,271,3.0,3.0,91,0.00,,---,0.00,VWS V14.01,2013-03-05 11:05:00,
2013-03-05 03:10:00,54.1,51.5,30.10,WNW,294,3.0,4.0,91,0.00,,---,0.00,VWS V14.01,2013-03-05 11:10:00,
2013-03-05 03:15:00,54.1,51.5,30.11,NW,314,3.0,4.0,91,0.00,,---,0.00,VWS V14.01,2013-03-05 11:15:00,
2013-03-05 03:20:00,54.1,51.5,30.11,WNW,285,1.0,5.0,91,0.00,,---,0.00,VWS V14.01,2013-03-05 11:20:00,
2013-03-05 03:25:00,54.1,51.5,30.11,NW,321,2.0,5.0,91,0.00,,---,0.00,VWS V14.01,2013-03-05 11:25:00,
2013-03-05 03:30:00,54.1,51.5,30.11,West,276,1.0,5.0,91,0.00,,---,0.00,VWS V14.01,2013-03-05 11:30:00,
2013-03-05 03:35:00,54.1,51.5,30.11,WNW,300,0.0,5.0,91,0.00,,---,0.00,VWS V14.01,2013-03-05 11:35:00,
2013-03-05 03:40:00,54.1,51.5,30.11,WNW,290,1.0,5.0,91,0.00,,---,0.00,VWS V14.01,2013-03-05 11:40:00,
2013-03-05 03:44:00,54.0,51.4,30.11,WNW,297,1.0,5.0,91,0.00,,---,0.00,VWS V14.01,2013-03-05 11:44:00,
2013-03-05 03:49:00,54.0,51.4,30.11,WNW,286,2.0,5.0,91,0.00,,---,0.00,VWS V14.01,2013-03-05 11:49:00,
2013-03-05 03:54:00,54.1,51.5,30.11,WSW,240,1.0,5.0,91,0.00,,---,0.00,VWS V14.01,2013-03-05 11:54:00,
2013-03-05 03:59:00,54.1,51.5,30.11,West,281,0.0,5.0,91,0.00,,---,0.00,VWS V14.01,2013-03-05 11:59:00,
2013-03-05 04:04:00,54.1,51.5,30.11,WNW,297,1.0,2.0,91,0.00,,---,0.00,VWS V14.01,2013-03-05 12:04:00,
2013-03-05 04:09:00,54.0,51.4,30.11,WNW,290,0.0,2.0,91,0.00,,---,0.00,VWS V14.01,2013-03-05 12:09:00,
2013-03-05 04:14:00,54.1,51.5,30.11,West,276,0.0,2.0,91,0.00,,---,0.00,VWS V14.01,2013-03-05 12:14:00,
2013-03-05 04:19:00,54.1,51.5,30.10,SSE,162,1.0,2.0,91,0.00,,---,0.00,VWS V14.01,2013-03-05 12:19:00,
2013-03-05 04:24:00,54.1,51.5,30.10,SE,124,1.0,2.0,91,0.00,,---,0.00,VWS V14.01,2013-03-05 12:24:00,
2013-03-05 04:29:00,54.1,51.5,30.10,SSE,162,1.0,2.0,91,0.00,,---,0.00,VWS V14.01,2013-03-05 12:29:00,
2013-03-05 04:34:00,54.1,51.5,30.10,South,169,0.0,2.0,91,0.00,,---,0.00,VWS V14.01,2013-03-05 12:34:00,
2013-03-05 04:39:00,53.9,51.0,30.10,SSE,166,0.0,3.0,90,0.00,,---,0.00,VWS V14.01,2013-03-05 12:39:00,
2013-03-05 04:44:00,53.9,51.3,30.10,SE,143,0.0,3.0,91,0.00,,---,0.00,VWS V14.01,2013-03-05 12:44:00,
2013-03-05 04:49:00,53.8,51.2,30.10,South,182,1.0,3.0,91,0.00,,---,0.00,VWS V14.01,2013-03-05 12:49:00,
2013-03-05 04:54:00,53.8,51.2,30.10,South,173,1.0,4.0,91,0.00,,---,0.00,VWS V14.01,2013-03-05 12:54:00,
2013-03-05 04:59:00,53.7,51.1,30.10,SE,131,1.0,4.0,91,0.00,,---,0.00,VWS V14.01,2013-03-05 12:59:00,
2013-03-05 05:04:00,53.7,51.1,30.10,SE,139,0.0,5.0,91,0.00,,---,0.00,VWS V14.01,2013-03-05 13:04:00,
2013-03-05 05:09:00,53.7,51.1,30.10,SSE,158,1.0,5.0,91,0.00,,---,0.00,VWS V14.01,2013-03-05 13:09:00,
2013-03-05 05:14:00,53.7,51.1,30.10,SSE,166,0.0,5.0,91,0.00,,---,0.00,VWS V14.01,2013-03-05 13:14:00,
2013-03-05 05:19:00,53.7,51.1,30.10,SSE,153,2.0,5.0,91,0.00,,---,0.00,VWS V14.01,2013-03-05 13:19:00,
2013-03-05 05:24:00,53.6,51.0,30.10,South,191,1.0,5.0,91,0.00,,---,0.00,VWS V14.01,2013-03-05 13:24:00,
2013-03-05 05:29:00,53.6,51.0,30.11,SW,215,2.0,5.0,91,0.00,,---,0.00,VWS V14.01,2013-03-05 13:29:00,
2013-03-05 05:34:00,53.5,50.9,30.11,SE,135,0.0,5.0,91,0.00,,---,0.00,VWS V14.01,2013-03-05 13:34:00,
2013-03-05 05:39:00,53.5,50.9,30.11,SE,141,0.0,5.0,91,0.00,,---,0.00,VWS V14.01,2013-03-05 13:39:00,
2013-03-05 05:44:00,53.5,50.9,30.11,South,180,0.0,5.0,91,0.00,,---,0.00,VWS V14.01,2013-03-05 13:44:00,
2013-03-05 05:49:00,53.5,50.9,30.11,SE,136,0.0,5.0,91,0.00,,---,0.00,VWS V14.01,2013-03-05 13:49:00,
2013-03-05 05:54:00,53.5,50.9,30.12,South,172,0.0,5.0,91,0.00,,---,0.00,VWS V14.01,2013-03-05 13:54:00,
2013-03-05 05:59:00,53.6,51.0,30.12,SE,136,0.0,5.0,91,0.00,,---,0.00,VWS V14.01,2013-03-05 13:59:00,
2013-03-05 06:04:00,53.6,51.0,30.12,SE,136,0.0,0.0,91,0.00,,---,0.00,VWS V14.01,2013-03-05 14:04:00,
2013-03-05 06:09:00,53.6,51.0,30.12,ESE,108,0.0,1.0,91,0.00,,---,0.00,VWS V14.01,2013-03-05 14:09:00,
2013-03-05 06:14:00,53.6,51.0,30.12,ESE,108,1.0,1.0,91,0.00,,---,0.00,VWS V14.01,2013-03-05 14:14:00,
2013-03-05 06:19:00,53.6,51.0,30.12,ESE,105,0.0,2.0,91,0.00,,---,0.00,VWS V14.01,2013-03-05 14:19:00,
2013-03-05 06:24:00,53.7,51.1,30.12,East,101,2.0,3.0,91,0.00,,---,0.00,VWS V14.01,2013-03-05 14:24:00,
2013-03-05 06:29:00,53.7,51.1,30.12,ESE,120,1.0,3.0,91,0.00,,---,0.00,VWS V14.01,2013-03-05 14:29:00,
2013-03-05 06:34:00,53.7,51.1,30.12,ESE,108,0.0,3.0,91,0.00,,---,0.00,VWS V14.01,2013-03-05 14:34:00,
2013-03-05 06:39:00,53.7,51.1,30.12,SSW,205,1.0,3.0,91,0.00,,---,0.00,VWS V14.01,2013-03-05 14:39:00,
2013-03-05 06:44:00,53.6,51.0,30.12,SW,215,1.0,3.0,91,0.00,,---,0.00,VWS V14.01,2013-03-05 14:44:00,
2013-03-05 06:49:00,53.5,50.9,30.12,SE,136,0.0,3.0,91,0.00,,---,0.00,VWS V14.01,2013-03-05 14:49:00,
2013-03-05 06:54:00,53.5,51.2,30.12,SSE,150,1.0,3.0,92,0.00,,---,0.00,VWS V14.01,2013-03-05 14:54:00,
2013-03-05 06:59:00,53.4,51.1,30.12,SE,128,5.0,5.0,92,0.00,,---,0.00,VWS V14.01,2013-03-05 14:59:00,
2013-03-05 07:04:00,53.5,51.2,30.12,SE,136,1.0,2.0,92,0.00,,---,0.00,VWS V14.01,2013-03-05 15:04:00,
2013-03-05 07:09:00,53.6,51.3,30.12,SSE,165,2.0,2.0,92,0.00,,---,0.00,VWS V14.01,2013-03-05 15:09:00,
2013-03-05 07:14:00,53.5,51.2,30.12,SSE,153,0.0,3.0,92,0.00,,---,0.00,VWS V14.01,2013-03-05 15:14:00,
2013-03-05 07:19:00,53.6,51.3,30.12,WSW,248,2.0,3.0,92,0.00,,---,0.00,VWS V14.01,2013-03-05 15:19:00,
2013-03-05 07:24:00,53.6,51.3,30.12,ESE,105,1.0,3.0,92,0.00,,---,0.00,VWS V14.01,2013-03-05 15:24:00,
2013-03-05 07:29:00,53.6,51.3,30.12,ESE,113,2.0,3.0,92,0.00,,---,0.00,VWS V14.01,2013-03-05 15:29:00,
2013-03-05 07:34:00,53.6,51.0,30.12,SE,136,0.0,5.0,91,0.00,,---,0.00,VWS V14.01,2013-03-05 15:34:00,
2013-03-05 07:39:00,53.6,51.0,30.12,East,96,5.0,5.0,91,0.00,,---,0.00,VWS V14.01,2013-03-05 15:39:00,
2013-03-05 07:44:00,53.6,51.0,30.12,SW,226,3.0,5.0,91,0.00,,---,0.00,VWS V14.01,2013-03-05 15:44:00,
2013-03-05 07:49:00,53.5,50.9,30.11,SSE,157,1.0,5.0,91,0.00,,---,0.00,VWS V14.01,2013-03-05 15:49:00,
2013-03-05 07:54:00,53.5,51.2,30.11,SE,133,1.0,5.0,92,0.00,,---,0.00,VWS V14.01,2013-03-05 15:54:00,
2013-03-05 07:59:00,53.6,51.0,30.11,SE,134,1.0,5.0,91,0.00,,---,0.00,VWS V14.01,2013-03-05 15:59:00,
2013-03-05 08:04:00,53.7,51.1,30.11,SSE,155,1.0,4.0,91,0.00,,---,0.00,VWS V14.01,2013-03-05 16:04:00,
2013-03-05 08:09:00,53.7,51.1,30.11,SSE,160,0.0,4.0,91,0.00,,---,0.00,VWS V14.01,2013-03-05 16:09:00,
2013-03-05 08:14:00,53.7,51.1,30.11,SSE,150,2.0,4.0,91,0.00,,---,0.00,VWS V14.01,2013-03-05 16:14:00,
2013-03-05 08:19:00,53.7,51.1,30.11,East,98,2.0,6.0,91,0.00,,---,0.00,VWS V14.01,2013-03-05 16:19:00,
2013-03-05 08:24:00,53.7,51.1,30.11,SSW,207,2.0,6.0,91,0.00,,---,0.00,VWS V14.01,2013-03-05 16:24:00,
2013-03-05 08:29:00,53.8,50.9,30.12,SW,221,2.0,6.0,90,0.00,,---,0.00,VWS V14.01,2013-03-05 16:29:00,
2013-03-05 08:34:00,54.0,51.4,30.12,WSW,240,1.0,6.0,91,0.00,,---,0.00,VWS V14.01,2013-03-05 16:34:00,
2013-03-05 08:39:00,54.3,51.4,30.12,SE,129,0.0,6.0,90,0.00,,---,0.00,VWS V14.01,2013-03-05 16:39:00,
2013-03-05 08:44:00,54.5,51.3,30.12,SW,236,4.0,6.0,89,0.00,,---,0.00,VWS V14.01,2013-03-05 16:44:00,
2013-03-05 08:49:00,54.4,51.2,30.12,WNW,284,3.0,6.0,89,0.00,,---,0.00,VWS V14.01,2013-03-05 16:49:00,
2013-03-05 08:54:00,54.3,51.1,30.12,West,262,0.0,6.0,89,0.00,,---,0.00,VWS V14.01,2013-03-05 16:54:00,
2013-03-05 08:59:00,54.5,51.3,30.12,SW,224,0.0,6.0,89,0.00,,---,0.00,VWS V14.01,2013-03-05 16:59:00,
2013-03-05 09:04:00,54.7,51.2,30.12,SSE,160,0.0,3.0,88,0.00,,---,0.00,VWS V14.01,2013-03-05 17:04:00,
2013-03-05 09:09:00,55.0,51.5,30.12,SSW,212,3.0,3.0,88,0.00,,---,0.00,VWS V14.01,2013-03-05 17:09:00,
2013-03-05 09:14:00,54.9,51.1,30.13,SE,131,0.0,4.0,87,0.00,,---,0.00,VWS V14.01,2013-03-05 17:14:00,
2013-03-05 09:19:00,55.0,51.2,30.13,West,261,1.0,4.0,87,0.00,,---,0.00,VWS V14.01,2013-03-05 17:19:00,
2013-03-05 09:24:00,55.1,51.3,30.13,WNW,287,1.0,4.0,87,0.00,,---,0.00,VWS V14.01,2013-03-05 17:24:00,
2013-03-05 09:29:00,54.9,51.1,30.13,NW,322,1.0,4.0,87,0.00,,---,0.00,VWS V14.01,2013-03-05 17:29:00,
2013-03-05 09:34:00,55.0,51.2,30.13,West,280,0.0,4.0,87,0.00,,---,0.00,VWS V14.01,2013-03-05 17:34:00,
2013-03-05 09:39:00,55.1,51.3,30.14,WNW,297,0.0,4.0,87,0.00,,---,0.00,VWS V14.01,2013-03-05 17:39:00,
2013-03-05 09:44:00,55.3,51.5,30.14,NW,318,1.0,4.0,87,0.00,,---,0.00,VWS V14.01,2013-03-05 17:44:00,
2013-03-05 09:49:00,55.2,51.1,30.14,West,279,1.0,4.0,86,0.00,,---,0.00,VWS V14.01,2013-03-05 17:49:00,
2013-03-05 09:54:00,55.2,51.4,30.14,WNW,289,2.0,4.0,87,0.00,,---,0.00,VWS V14.01,2013-03-05 17:54:00,
2013-03-05 09:59:00,55.2,51.4,30.14,NNE,22,1.0,4.0,87,0.00,,---,0.00,VWS V14.01,2013-03-05 17:59:00,
2013-03-05 10:04:00,55.3,51.2,30.14,North,354,1.0,3.0,86,0.00,,---,0.00,VWS V14.01,2013-03-05 18:04:00,
2013-03-05 10:09:00,55.4,51.6,30.14,NE,41,0.0,3.0,87,0.00,,---,0.00,VWS V14.01,2013-03-05 18:09:00,
2013-03-05 10:14:00,55.4,51.3,30.14,NW,314,2.0,4.0,86,0.00,,---,0.00,VWS V14.01,2013-03-05 18:14:00,
2013-03-05 10:19:00,55.4,51.3,30.14,NW,307,0.0,4.0,86,0.00,,---,0.00,VWS V14.01,2013-03-05 18:19:00,
2013-03-05 10:24:00,55.6,51.5,30.14,NNE,13,3.0,4.0,86,0.00,,---,0.00,VWS V14.01,2013-03-05 18:24:00,
2013-03-05 10:29:00,55.8,51.7,30.14,WNW,302,1.0,4.0,86,0.00,,---,0.00,VWS V14.01,2013-03-05 18:29:00,
2013-03-05 10:34:00,56.2,52.1,30.14,NW,304,0.0,4.0,86,0.00,,---,0.00,VWS V14.01,2013-03-05 18:34:00,
2013-03-05 10:39:00,56.6,52.2,30.13,WSW,250,0.0,4.0,85,0.00,,---,0.00,VWS V14.01,2013-03-05 18:39:00,
2013-03-05 10:44:00,56.8,51.7,30.13,NW,323,3.0,4.0,83,0.00,,---,0.00,VWS V14.01,2013-03-05 18:44:00,
2013-03-05 10:49:00,56.6,51.8,30.14,WNW,290,3.0,4.0,84,0.00,,---,0.00,VWS V14.01,2013-03-05 18:49:00,
2013-03-05 10:54:00,56.6,52.2,30.14,WSW,245,1.0,4.0,85,0.00,,---,0.00,VWS V14.01,2013-03-05 18:54:00,
2013-03-05 10:59:00,56.7,51.9,30.14,WNW,287,1.0,4.0,84,0.00,,---,0.00,VWS V14.01,2013-03-05 18:59:00,
2013-03-05 11:04:00,56.9,52.1,30.13,West,278,0.0,3.0,84,0.00,,---,0.00,VWS V14.01,2013-03-05 19:04:00,
2013-03-05 11:09:00,57.1,52.3,30.13,North,9,1.0,3.0,84,0.00,,---,0.00,VWS V14.01,2013-03-05 19:09:00,
2013-03-05 11:14:00,56.8,52.0,30.13,NW,315,0.0,3.0,84,0.00,,---,0.00,VWS V14.01,2013-03-05 19:14:00,
2013-03-05 11:19:00,56.9,52.1,30.13,WNW,293,0.0,3.0,84,0.00,,---,0.00,VWS V14.01,2013-03-05 19:19:00,
2013-03-05 11:24:00,57.0,52.2,30.13,NW,308,1.0,3.0,84,0.00,,---,0.00,VWS V14.01,2013-03-05 19:24:00,
2013-03-05 11:29:00,57.3,52.2,30.13,NW,326,1.0,3.0,83,0.00,,---,0.00,VWS V14.01,2013-03-05 19:29:00,
2013-03-05 11:34:00,57.3,52.5,30.13,West,278,1.0,3.0,84,0.00,,---,0.00,VWS V14.01,2013-03-05 19:34:00,
2013-03-05 11:39:00,57.0,51.9,30.13,WNW,284,3.0,6.0,83,0.00,,---,0.00,VWS V14.01,2013-03-05 19:39:00,
2013-03-05 11:44:00,56.9,52.1,30.13,WSW,240,2.0,6.0,84,0.00,,---,0.00,VWS V14.01,2013-03-05 19:44:00,
2013-03-05 11:49:00,56.8,52.3,30.12,SSW,211,1.0,6.0,85,0.00,,---,0.00,VWS V14.01,2013-03-05 19:49:00,
2013-03-05 11:54:00,56.9,52.1,30.12,WSW,250,1.0,6.0,84,0.00,,---,0.00,VWS V14.01,2013-03-05 19:54:00,
2013-03-05 11:59:00,57.2,52.7,30.12,SE,140,1.0,6.0,85,0.00,,---,0.00,VWS V14.01,2013-03-05 19:59:00,
2013-03-05 12:04:00,57.2,52.4,30.12,West,262,1.0,2.0,84,0.00,,---,0.00,VWS V14.01,2013-03-05 20:04:00,
2013-03-05 12:09:00,57.0,52.2,30.11,WNW,295,2.0,4.0,84,0.00,,---,0.00,VWS V14.01,2013-03-05 20:09:00,
2013-03-05 12:14:00,57.2,52.4,30.11,West,276,1.0,4.0,84,0.00,,---,0.00,VWS V14.01,2013-03-05 20:14:00,
2013-03-05 12:19:00,57.4,52.6,30.11,South,188,0.0,4.0,84,0.00,,---,0.00,VWS V14.01,2013-03-05 20:19:00,
2013-03-05 12:24:00,58.0,52.9,30.11,West,273,0.0,4.0,83,0.00,,---,0.00,VWS V14.01,2013-03-05 20:24:00,
2013-03-05 12:29:00,58.1,52.6,30.11,WNW,289,2.0,4.0,82,0.00,,---,0.00,VWS V14.01,2013-03-05 20:29:00,
2013-03-05 12:34:00,58.2,53.1,30.10,WNW,295,2.0,4.0,83,0.00,,---,0.00,VWS V14.01,2013-03-05 20:34:00,
2013-03-05 12:39:00,58.0,52.5,30.10,NW,307,0.0,4.0,82,0.00,,---,0.00,VWS V14.01,2013-03-05 20:39:00,
2013-03-05 12:44:00,58.6,53.1,30.10,SW,222,0.0,4.0,82,0.00,,---,0.00,VWS V14.01,2013-03-05 20:44:00,
2013-03-05 12:49:00,59.5,53.0,30.09,SE,132,4.0,7.0,79,0.00,,---,0.00,VWS V14.01,2013-03-05 20:49:00,
2013-03-05 12:54:00,59.8,52.9,30.09,SSW,200,0.0,7.0,78,0.00,,---,0.00,VWS V14.01,2013-03-05 20:54:00,
2013-03-05 12:59:00,59.9,52.7,30.09,WNW,302,1.0,7.0,77,0.00,,---,0.00,VWS V14.01,2013-03-05 20:59:00,
2013-03-05 13:04:00,59.6,52.4,30.09,WNW,302,1.0,2.0,77,0.00,,---,0.00,VWS V14.01,2013-03-05 21:04:00,
2013-03-05 13:09:00,59.4,52.9,30.09,East,84,1.0,2.0,79,0.00,,---,0.00,VWS V14.01,2013-03-05 21:09:00,
2013-03-05 13:14:00,59.5,52.6,30.08,North,5,0.0,3.0,78,0.00,,---,0.00,VWS V14.01,2013-03-05 21:14:00,
2013-03-05 13:19:00,60.1,52.9,30.08,WSW,253,4.0,5.0,77,0.00,,---,0.00,VWS V14.01,2013-03-05 21:19:00,
2013-03-05 13:24:00,60.1,52.9,30.08,SSE,153,2.0,5.0,77,0.00,,---,0.00,VWS V14.01,2013-03-05 21:24:00,
2013-03-05 13:29:00,60.6,53.0,30.08,SSW,201,2.0,5.0,76,0.00,,---,0.00,VWS V14.01,2013-03-05 21:29:00,
2013-03-05 13:34:00,60.2,53.3,30.08,SW,228,1.0,9.0,78,0.00,,---,0.00,VWS V14.01,2013-03-05 21:34:00,
2013-03-05 13:39:00,59.9,52.7,30.07,West,280,3.0,9.0,77,0.00,,---,0.00,VWS V14.01,2013-03-05 21:39:00,
2013-03-05 13:44:00,59.9,53.0,30.07,NNW,336,2.0,9.0,78,0.00,,---,0.00,VWS V14.01,2013-03-05 21:44:00,
2013-03-05 13:49:00,59.9,52.7,30.07,WNW,284,4.0,9.0,77,0.00,,---,0.00,VWS V14.01,2013-03-05 21:49:00,
2013-03-05 13:54:00,59.7,52.8,30.07,WNW,288,3.0,9.0,78,0.00,,---,0.00,VWS V14.01,2013-03-05 21:54:00,
2013-03-05 13:59:00,59.6,52.4,30.07,WNW,288,3.0,9.0,77,0.00,,---,0.00,VWS V14.01,2013-03-05 21:59:00,
2013-03-05 14:04:00,59.9,53.0,30.07,SW,236,2.0,4.0,78,0.00,,---,0.00,VWS V14.01,2013-03-05 22:04:00,
2013-03-05 14:09:00,60.0,52.4,30.07,WNW,291,4.0,5.0,76,0.00,,---,0.00,VWS V14.01,2013-03-05 22:09:00,
2013-03-05 14:14:00,59.9,52.3,30.07,WNW,288,6.0,7.0,76,0.00,,---,0.00,VWS V14.01,2013-03-05 22:14:00,
2013-03-05 14:19:00,59.8,52.6,30.07,WNW,296,4.0,8.0,77,0.00,,---,0.00,VWS V14.01,2013-03-05 22:19:00,
2013-03-05 14:24:00,59.5,52.3,30.07,West,263,2.0,8.0,77,0.00,,---,0.00,VWS V14.01,2013-03-05 22:24:00,
2013-03-05 14:29:00,59.2,52.3,30.07,West,266,5.0,9.0,78,0.00,,---,0.00,VWS V14.01,2013-03-05 22:29:00,
2013-03-05 14:34:00,59.2,52.3,30.07,NW,315,3.0,9.0,78,0.00,,---,0.00,VWS V14.01,2013-03-05 22:34:00,
2013-03-05 14:39:00,58.8,52.7,30.07,NW,312,2.0,9.0,80,0.00,,---,0.00,VWS V14.01,2013-03-05 22:39:00,
2013-03-05 14:44:00,58.7,52.6,30.07,West,274,4.0,9.0,80,0.00,,---,0.00,VWS V14.01,2013-03-05 22:44:00,
2013-03-05 14:49:00,58.3,52.5,30.07,SW,226,6.0,9.0,81,0.00,,---,0.00,VWS V14.01,2013-03-05 22:49:00,
2013-03-05 14:54:00,57.9,52.5,30.07,WNW,302,4.0,9.0,82,0.00,,---,0.00,VWS V14.01,2013-03-05 22:54:00,
2013-03-05 14:59:00,58.0,52.5,30.07,West,280,6.0,10.0,82,0.00,,---,0.00,VWS V14.01,2013-03-05 22:59:00,
2013-03-05 15:04:00,57.5,52.1,30.07,WNW,287,7.0,11.0,82,0.00,,---,0.00,VWS V14.01,2013-03-05 23:04:00,
2013-03-05 15:09:00,57.0,51.6,30.07,WNW,290,9.0,11.0,82,0.00,,---,0.00,VWS V14.01,2013-03-05 23:09:00,
2013-03-05 15:14:00,56.7,51.6,30.07,WNW,297,5.0,11.0,83,0.00,,---,0.00,VWS V14.01,2013-03-05 23:14:00,
2013-03-05 15:19:00,56.6,51.5,30.07,NW,305,7.0,11.0,83,0.00,,---,0.00,VWS V14.01,2013-03-05 23:19:00,
2013-03-05 15:24:00,57.0,51.9,30.07,West,271,5.0,11.0,83,0.00,,---,0.00,VWS V14.01,2013-03-05 23:24:00,
2013-03-05 15:29:00,56.8,51.4,30.07,NW,309,5.0,11.0,82,0.00,,---,0.00,VWS V14.01,2013-03-05 23:29:00,
2013-03-05 15:34:00,56.8,51.4,30.07,West,276,5.0,11.0,82,0.00,,---,0.00,VWS V14.01,2013-03-05 23:34:00,
2013-03-05 15:39:00,57.0,51.6,30.07,WSW,243,7.0,11.0,82,0.00,,---,0.00,VWS V14.01,2013-03-05 23:39:00,
2013-03-05 15:44:00,57.0,51.6,30.07,WSW,249,4.0,11.0,82,0.00,,---,0.00,VWS V14.01,2013-03-05 23:44:00,
2013-03-05 15:49:00,56.9,51.5,30.07,West,278,1.0,11.0,82,0.00,,---,0.00,VWS V14.01,2013-03-05 23:49:00,
2013-03-05 15:54:00,56.8,51.4,30.06,WNW,298,4.0,11.0,82,0.00,,---,0.00,VWS V14.01,2013-03-05 23:54:00,
2013-03-05 15:59:00,56.6,51.2,30.07,WNW,290,5.0,11.0,82,0.00,,---,0.00,VWS V14.01,2013-03-05 23:59:00,
2013-03-05 16:04:00,56.2,51.1,30.07,West,278,6.0,9.0,83,0.00,,---,0.00,VWS V14.01,2013-03-06 00:04:00,
2013-03-05 16:09:00,56.1,51.0,30.07,West,278,5.0,10.0,83,0.00,,---,0.00,VWS V14.01,2013-03-06 00:09:00,
2013-03-05 16:14:00,56.1,51.0,30.07,WSW,250,3.0,10.0,83,0.00,,---,0.00,VWS V14.01,2013-03-06 00:14:00,
2013-03-05 16:19:00,55.9,50.8,30.07,WNW,284,4.0,10.0,83,0.00,,---,0.00,VWS V14.01,2013-03-06 00:19:00,
2013-03-05 16:24:00,55.7,50.6,30.07,WNW,297,5.0,10.0,83,0.00,,---,0.00,VWS V14.01,2013-03-06 00:24:00,
2013-03-05 16:29:00,55.5,50.4,30.07,SW,228,3.0,10.0,83,0.00,,---,0.00,VWS V14.01,2013-03-06 00:29:00,
2013-03-05 16:34:00,55.3,50.6,30.07,WNW,293,5.0,10.0,84,0.00,,---,0.00,VWS V14.01,2013-03-06 00:34:00,
2013-03-05 16:39:00,55.2,50.5,30.07,WNW,295,4.0,10.0,84,0.00,,---,0.00,VWS V14.01,2013-03-06 00:39:00,
2013-03-05 16:44:00,55.2,50.5,30.08,West,260,5.0,10.0,84,0.00,,---,0.00,VWS V14.01,2013-03-06 00:44:00,
2013-03-05 16:49:00,55.1,50.4,30.08,WNW,291,5.0,10.0,84,0.00,,---,0.00,VWS V14.01,2013-03-06 00:49:00,
2013-03-05 16:54:00,55.0,50.3,30.07,WNW,287,6.0,10.0,84,0.00,,---,0.00,VWS V14.01,2013-03-06 00:54:00,
2013-03-05 16:59:00,55.0,50.3,30.07,WNW,283,6.0,10.0,84,0.00,,---,0.00,VWS V14.01,2013-03-06 00:59:00,
2013-03-05 17:04:00,54.9,49.8,30.07,WNW,288,4.0,9.0,83,0.00,,---,0.00,VWS V14.01,2013-03-06 01:04:00,
2013-03-05 17:09:00,54.9,49.8,30.07,WNW,288,4.0,9.0,83,0.00,,---,0.00,VWS V14.01,2013-03-06 01:09:00,
2013-03-05 17:14:00,54.9,49.8,30.08,SW,226,5.0,9.0,83,0.00,,---,0.00,VWS V14.01,2013-03-06 01:14:00,
2013-03-05 17:19:00,54.8,49.7,30.08,WNW,291,4.0,9.0,83,0.00,,---,0.00,VWS V14.01,2013-03-06 01:19:00,
2013-03-05 17:24:00,54.8,49.7,30.08,WSW,253,3.0,9.0,83,0.00,,---,0.00,VWS V14.01,2013-03-06 01:24:00,
2013-03-05 17:29:00,54.7,49.7,30.08,WNW,288,6.0,9.0,83,0.00,,---,0.00,VWS V14.01,2013-03-06 01:29:00,
2013-03-05 17:34:00,54.6,49.5,30.08,West,281,7.0,9.0,83,0.00,,---,0.00,VWS V14.01,2013-03-06 01:34:00,
2013-03-05 17:39:00,54.5,49.5,30.08,WNW,295,5.0,9.0,83,0.00,,---,0.00,VWS V14.01,2013-03-06 01:39:00,
2013-03-05 17:44:00,54.5,49.1,30.08,WSW,256,5.0,9.0,82,0.00,,---,0.00,VWS V14.01,2013-03-06 01:44:00,
2013-03-05 17:49:00,54.5,49.1,30.08,NW,304,5.0,9.0,82,0.00,,---,0.00,VWS V14.01,2013-03-06 01:49:00,
2013-03-05 17:54:00,54.4,49.0,30.08,WNW,283,6.0,9.0,82,0.00,,---,0.00,VWS V14.01,2013-03-06 01:54:00,
2013-03-05 17:59:00,54.3,48.9,30.08,West,270,3.0,9.0,82,0.00,,---,0.00,VWS V14.01,2013-03-06 01:59:00,
2013-03-05 18:04:00,54.3,48.9,30.08,WNW,297,3.0,6.0,82,0.00,,---,0.00,VWS V14.01,2013-03-06 02:04:00,
2013-03-05 18:09:00,54.3,48.9,30.08,WNW,293,4.0,6.0,82,0.00,,---,0.00,VWS V14.01,2013-03-06 02:09:00,
2013-03-05 18:14:00,54.4,48.7,30.09,WNW,284,2.0,6.0,81,0.00,,---,0.00,VWS V14.01,2013-03-06 02:14:00,
2013-03-05 18:18:00,54.5,48.8,30.09,West,276,3.0,6.0,81,0.00,,---,0.00,VWS V14.01,2013-03-06 02:18:00,
2013-03-05 18:23:00,54.4,48.7,30.09,WNW,286,3.0,6.0,81,0.00,,---,0.00,VWS V14.01,2013-03-06 02:23:00,
2013-03-05 18:28:00,54.5,48.8,30.09,WNW,287,2.0,6.0,81,0.00,,---,0.00,VWS V14.01,2013-03-06 02:28:00,
2013-03-05 18:33:00,54.5,48.5,30.09,WNW,295,2.0,6.0,80,0.00,,---,0.00,VWS V14.01,2013-03-06 02:33:00,
2013-03-05 18:38:00,54.5,48.8,30.10,WNW,294,4.0,6.0,81,0.00,,---,0.00,VWS V14.01,2013-03-06 02:38:00,
2013-03-05 18:43:00,54.5,48.8,30.10,West,276,1.0,6.0,81,0.00,,---,0.00,VWS V14.01,2013-03-06 02:43:00,
2013-03-05 18:48:00,54.6,48.9,30.10,SW,222,0.0,6.0,81,0.00,,---,0.00,VWS V14.01,2013-03-06 02:48:00,
2013-03-05 18:53:00,54.5,49.1,30.10,WSW,257,1.0,6.0,82,0.00,,---,0.00,VWS V14.01,2013-03-06 02:53:00,
2013-03-05 18:58:00,54.4,49.3,30.10,West,280,1.0,6.0,83,0.00,,---,0.00,VWS V14.01,2013-03-06 02:58:00,
2013-03-05 19:03:00,54.3,49.6,30.10,WSW,244,2.0,5.0,84,0.00,,---,0.00,VWS V14.01,2013-03-06 03:03:00,
2013-03-05 19:08:00,54.2,49.5,30.10,West,277,1.0,5.0,84,0.00,,---,0.00,VWS V14.01,2013-03-06 03:08:00,
2013-03-05 19:13:00,54.1,49.7,30.10,WSW,250,6.0,6.0,85,0.00,,---,0.00,VWS V14.01,2013-03-06 03:13:00,
2013-03-05 19:18:00,54.0,49.6,30.10,WSW,250,1.0,6.0,85,0.00,,---,0.00,VWS V14.01,2013-03-06 03:18:00,
2013-03-05 19:23:00,54.0,49.6,30.10,West,280,2.0,6.0,85,0.00,,---,0.00,VWS V14.01,2013-03-06 03:23:00,
2013-03-05 19:28:00,53.9,49.5,30.10,WNW,302,3.0,6.0,85,0.00,,---,0.00,VWS V14.01,2013-03-06 03:28:00,
2013-03-05 19:33:00,53.9,49.5,30.10,West,276,1.0,6.0,85,0.00,,---,0.00,VWS V14.01,2013-03-06 03:33:00,
2013-03-05 19:38:00,53.9,49.5,30.10,WNW,300,2.0,6.0,85,0.00,,---,0.00,VWS V14.01,2013-03-06 03:38:00,
2013-03-05 19:43:00,53.8,49.4,30.11,WNW,291,2.0,6.0,85,0.00,,---,0.00,VWS V14.01,2013-03-06 03:43:00,
2013-03-05 19:48:00,53.9,49.2,30.11,WNW,283,3.0,6.0,84,0.00,,---,0.00,VWS V14.01,2013-03-06 03:48:00,
2013-03-05 19:53:00,53.8,49.4,30.11,West,260,1.0,6.0,85,0.00,,---,0.00,VWS V14.01,2013-03-06 03:53:00,
2013-03-05 19:58:00,53.9,49.5,30.11,WSW,238,1.0,6.0,85,0.00,,---,0.00,VWS V14.01,2013-03-06 03:58:00,
2013-03-05 20:03:00,53.9,49.2,30.11,SW,226,2.0,3.0,84,0.00,,---,0.00,VWS V14.01,2013-03-06 04:03:00,
2013-03-05 20:08:00,53.9,49.2,30.11,WNW,293,1.0,3.0,84,0.00,,---,0.00,VWS V14.01,2013-03-06 04:08:00,
2013-03-05 20:13:00,53.9,49.2,30.11,WNW,300,0.0,3.0,84,0.00,,---,0.00,VWS V14.01,2013-03-06 04:13:00,
2013-03-05 20:18:00,53.9,49.2,30.11,WNW,293,2.0,3.0,84,0.00,,---,0.00,VWS V14.01,2013-03-06 04:18:00,
2013-03-05 20:23:00,53.9,49.2,30.11,WSW,250,0.0,3.0,84,0.00,,---,0.00,VWS V14.01,2013-03-06 04:23:00,
2013-03-05 20:28:00,53.9,49.5,30.11,West,267,3.0,3.0,85,0.00,,---,0.00,VWS V14.01,2013-03-06 04:28:00,
2013-03-05 20:33:00,53.9,49.2,30.11,West,274,2.0,4.0,84,0.00,,---,0.00,VWS V14.01,2013-03-06 04:33:00,
2013-03-05 20:38:00,53.9,49.2,30.11,West,281,3.0,4.0,84,0.00,,---,0.00,VWS V14.01,2013-03-06 04:38:00,
2013-03-05 20:43:00,53.9,49.2,30.12,WNW,297,3.0,5.0,84,0.00,,---,0.00,VWS V14.01,2013-03-06 04:43:00,
2013-03-05 20:48:00,53.9,49.2,30.12,NW,311,4.0,5.0,84,0.00,,---,0.00,VWS V14.01,2013-03-06 04:48:00,
2013-03-05 20:53:00,53.9,49.2,30.12,WNW,290,6.0,6.0,84,0.00,,---,0.00,VWS V14.01,2013-03-06 04:53:00,
2013-03-05 20:58:00,53.9,49.5,30.12,WNW,289,4.0,6.0,85,0.00,,---,0.00,VWS V14.01,2013-03-06 04:58:00,
2013-03-05 21:00:00,53.9,49.5,30.12,WNW,302,4.0,6.0,85,0.00,,---,0.00,VWS V14.01,2013-03-06 05:00:00,
2013-03-05 21:05:00,53.9,49.5,30.12,WNW,301,3.0,7.0,85,0.00,,---,0.00,VWS V14.01,2013-03-06 05:05:00,
2013-03-05 21:10:00,53.8,49.4,30.12,WNW,285,5.0,7.0,85,0.00,,---,0.00,VWS V14.01,2013-03-06 05:10:00,
2013-03-05 21:15:00,53.8,49.4,30.12,West,274,2.0,7.0,85,0.00,,---,0.00,VWS V14.01,2013-03-06 05:15:00,
2013-03-05 21:20:00,53.8,49.4,30.12,WNW,297,2.0,7.0,85,0.00,,---,0.00,VWS V14.01,2013-03-06 05:20:00,
2013-03-05 21:25:00,53.9,49.5,30.12,WNW,290,3.0,7.0,85,0.00,,---,0.00,VWS V14.01,2013-03-06 05:25:00,
2013-03-05 21:30:00,53.9,49.5,30.12,WSW,257,2.0,7.0,85,0.00,,---,0.00,VWS V14.01,2013-03-06 05:30:00,
2013-03-05 21:35:00,53.9,49.5,30.13,WNW,286,1.0,7.0,85,0.00,,---,0.00,VWS V14.01,2013-03-06 05:35:00,
2013-03-05 21:40:00,53.9,49.5,30.13,WNW,293,4.0,7.0,85,0.00,,---,0.00,VWS V14.01,2013-03-06 05:40:00,
2013-03-05 21:45:00,53.9,49.5,30.13,WNW,293,4.0,8.0,85,0.00,,---,0.00,VWS V14.01,2013-03-06 05:45:00,
2013-03-05 21:50:00,53.8,49.4,30.13,NW,319,2.0,8.0,85,0.00,,---,0.00,VWS V14.01,2013-03-06 05:50:00,
2013-03-05 21:55:00,53.9,49.5,30.13,WNW,300,2.0,8.0,85,0.00,,---,0.00,VWS V14.01,2013-03-06 05:55:00,
2013-03-05 22:00:00,53.9,49.8,30.13,NW,307,4.0,8.0,86,0.00,,---,0.00,VWS V14.01,2013-03-06 06:00:00,
2013-03-05 22:05:00,53.8,49.7,30.13,WNW,297,3.0,6.0,86,0.00,,---,0.00,VWS V14.01,2013-03-06 06:05:00,
2013-03-05 22:10:00,53.8,49.7,30.13,WNW,290,1.0,6.0,86,0.00,,---,0.00,VWS V14.01,2013-03-06 06:10:00,
2013-03-05 22:15:00,53.7,49.6,30.13,WSW,240,0.0,6.0,86,0.00,,---,0.00,VWS V14.01,2013-03-06 06:15:00,
2013-03-05 22:20:00,53.8,49.7,30.13,SE,136,0.0,6.0,86,0.00,,---,0.00,VWS V14.01,2013-03-06 06:20:00,
2013-03-05 22:25:00,53.8,49.7,30.13,WSW,257,2.0,6.0,86,0.00,,---,0.00,VWS V14.01,2013-03-06 06:25:00,
2013-03-05 22:30:00,53.7,49.6,30.13,WNW,289,5.0,7.0,86,0.00,,---,0.00,VWS V14.01,2013-03-06 06:30:00,
2013-03-05 22:35:00,53.5,49.4,30.13,NW,309,8.0,11.0,86,0.00,,---,0.00,VWS V14.01,2013-03-06 06:35:00,
2013-03-05 22:40:00,52.9,49.5,30.13,West,274,9.0,11.0,88,0.00,,---,0.00,VWS V14.01,2013-03-06 06:40:00,
2013-03-05 22:45:00,52.4,49.3,30.14,NNW,342,4.0,11.0,89,0.00,,---,0.00,VWS V14.01,2013-03-06 06:45:00,
2013-03-05 22:50:00,52.1,49.3,30.14,NW,319,3.0,11.0,90,0.00,,---,0.00,VWS V14.01,2013-03-06 06:50:00,
2013-03-05 22:55:00,51.9,49.1,30.14,WNW,295,3.0,11.0,90,0.00,,---,0.00,VWS V14.01,2013-03-06 06:55:00,
2013-03-05 23:00:00,51.8,49.0,30.14,WNW,284,1.0,11.0,90,0.00,,---,0.00,VWS V14.01,2013-03-06 07:00:00,
2013-03-05 23:05:00,51.7,48.9,30.14,North,350,3.0,7.0,90,0.00,,---,0.00,VWS V14.01,2013-03-06 07:05:00,
2013-03-05 23:10:00,51.6,49.1,30.14,NNW,340,2.0,7.0,91,0.00,,---,0.00,VWS V14.01,2013-03-06 07:10:00,
2013-03-05 23:15:00,51.5,49.0,30.14,NNE,22,0.0,7.0,91,0.00,,---,0.00,VWS V14.01,2013-03-06 07:15:00,
2013-03-05 23:20:00,51.5,49.0,30.15,NNW,332,1.0,7.0,91,0.00,,---,0.00,VWS V14.01,2013-03-06 07:20:00,
2013-03-05 23:25:00,51.5,49.0,30.15,WNW,288,6.0,7.0,91,0.00,,---,0.00,VWS V14.01,2013-03-06 07:25:00,
2013-03-05 23:30:00,51.4,48.9,30.15,NNE,13,1.0,7.0,91,0.00,,---,0.00,VWS V14.01,2013-03-06 07:30:00,
2013-03-05 23:35:00,51.5,49.0,30.15,NNE,32,3.0,7.0,91,0.00,,---,0.00,VWS V14.01,2013-03-06 07:35:00,
2013-03-05 23:40:00,51.6,49.1,30.15,NNW,344,1.0,7.0,91,0.00,,---,0.00,VWS V14.01,2013-03-06 07:40:00,
2013-03-05 23:45:00,51.5,48.7,30.15,West,276,1.0,7.0,90,0.00,,---,0.00,VWS V14.01,2013-03-06 07:45:00,
2013-03-05 23:50:00,51.4,48.6,30.15,West,270,0.0,7.0,90,0.00,,---,0.00,VWS V14.01,2013-03-06 07:50:00,
2013-03-05 23:55:00,51.4,48.6,30.15,WNW,293,3.0,7.0,90,0.00,,---,0.00,VWS V14.01,2013-03-06 07:55:00,